CPX791 Details

Departure: Changi International Airport (WSSS)
Arrival: Kingsford Smith International Airport (YSSY)
Route: ANIT7B ANITO/M082F310 B470 PKP/N0496F310 L511 RUPKA/N0492F330 L511 TARUN T20 BRM/N0488F350 G222 AGAGO/N0483F370 G222 PKS H319 TARAL Y59 RIVET


Current Weather Information
WSSS 250300Z 20007KT 180V250 9999 VCSH FEW016CB SCT018TCU BKN350 30/26 Q1011 TEMPO TL0330 4000 TSRA
YSSY 250300Z 31007KT CAVOK 26/04 Q1016